Time;durP1;ratioP1;P1;durP2;ratioP2;P2;SDS_P1;SDS_P2;PMS_P1;PMS_P2;Temp;Humidity;BMP_temperature;BMP_pressure;BME280_temperature;BME280_humidity;BME280_pressure;Samples;Min_cycle;Max_cycle;Signal;HPM_P1;HPM_P2
2023/02/03 00:00:56;;;;;;;4.85;1.98;;;;;;;;;;5062002;28;20066;-62
2023/02/03 00:03:23;;;;;;;5.03;2.35;;;;;;;;;;5065119;28;20017;-63
2023/02/03 00:05:49;;;;;;;2.97;2.08;;;;;;;;;;5061490;28;20066;-63
2023/02/03 00:08:17;;;;;;;3.42;2.17;;;;;;;;;;5056498;28;20096;-63
2023/02/03 00:10:44;;;;;;;4.13;2.20;;;;;;;;;;5066609;28;20044;-62
2023/02/03 00:13:11;;;;;;;3.63;2.20;;;;;;;;;;5059672;28;20460;-62
2023/02/03 00:15:37;;;;;;;5.73;2.23;;;;;;;;;;5053025;28;20033;-61
2023/02/03 00:18:04;;;;;;;5.00;1.57;;;;;;;;;;5071728;28;20031;-61
2023/02/03 00:20:32;;;;;;;2.73;1.83;;;;;;;;;;5070666;28;20027;-61
2023/02/03 00:23:09;;;;;;;2.43;2.00;;;;;;;;;;5071631;28;20028;-62
2023/02/03 00:25:36;;;;;;;4.57;2.67;;;;;;;;;;5070024;28;20035;-61
2023/02/03 00:28:04;;;;;;;5.10;2.30;;;;;;;;;;5066248;28;20024;-62
2023/02/03 00:30:31;;;;;;;3.47;1.77;;;;;;;;;;5066443;28;20754;-62
2023/02/03 00:32:58;;;;;;;2.07;1.60;;;;;;;;;;5062023;28;20021;-61
2023/02/03 00:35:25;;;;;;;4.03;2.57;;;;;;;;;;5046176;28;20021;-62
2023/02/03 00:37:52;;;;;;;3.53;1.70;;;;;;;;;;5056868;28;20931;-62
2023/02/03 00:40:19;;;;;;;4.43;1.70;;;;;;;;;;5071645;28;20111;-62
2023/02/03 00:42:46;;;;;;;4.20;1.83;;;;;;;;;;5071512;28;20029;-62
2023/02/03 00:45:13;;;;;;;2.37;1.50;;;;;;;;;;5060991;28;20115;-61
2023/02/03 00:47:39;;;;;;;6.83;2.47;;;;;;;;;;5057299;28;20047;-63
2023/02/03 00:50:07;;;;;;;4.93;2.03;;;;;;;;;;5050457;28;20033;-62
2023/02/03 00:52:33;;;;;;;6.37;3.10;;;;;;;;;;5053471;28;20016;-62
2023/02/03 00:55:00;;;;;;;4.33;2.60;;;;;;;;;;5055632;28;20025;-62
2023/02/03 00:57:27;;;;;;;3.83;1.93;;;;;;;;;;5049843;28;20025;-63
2023/02/03 00:59:54;;;;;;;4.73;2.63;;;;;;;;;;5053306;28;20112;-62
2023/02/03 01:02:22;;;;;;;5.03;2.60;;;;;;;;;;5054887;28;20021;-62
2023/02/03 01:04:49;;;;;;;3.37;2.10;;;;;;;;;;5054882;28;20029;-62
2023/02/03 01:07:16;;;;;;;5.07;2.47;;;;;;;;;;5059162;28;20024;-62
2023/02/03 01:09:42;;;;;;;3.80;2.23;;;;;;;;;;5074323;28;20035;-62
2023/02/03 01:12:09;;;;;;;3.97;2.23;;;;;;;;;;5070929;28;20036;-62
2023/02/03 01:14:36;;;;;;;2.17;1.60;;;;;;;;;;5062438;28;20115;-62
2023/02/03 01:17:02;;;;;;;3.20;2.27;;;;;;;;;;5062666;28;20028;-62
2023/02/03 01:19:29;;;;;;;2.87;1.47;;;;;;;;;;5053319;28;20017;-63
2023/02/03 01:21:56;;;;;;;2.63;1.93;;;;;;;;;;5053184;28;20059;-62
2023/02/03 01:24:22;;;;;;;3.13;2.07;;;;;;;;;;5074262;28;20024;-63
2023/02/03 01:26:49;;;;;;;3.40;1.70;;;;;;;;;;5074177;28;20017;-63
2023/02/03 01:29:16;;;;;;;2.90;1.57;;;;;;;;;;5073855;28;20499;-63
2023/02/03 01:31:43;;;;;;;12.37;2.63;;;;;;;;;;5063092;28;20036;-62
2023/02/03 01:34:17;;;;;;;4.57;2.27;;;;;;;;;;5050904;28;20029;-62
2023/02/03 01:36:45;;;;;;;6.15;2.67;;;;;;;;;;5048698;28;20036;-63
2023/02/03 01:39:12;;;;;;;3.67;2.73;;;;;;;;;;5048855;28;20041;-63
2023/02/03 01:41:39;;;;;;;9.53;2.37;;;;;;;;;;5048811;28;20029;-63
2023/02/03 01:44:24;;;;;;;4.13;2.23;;;;;;;;;;5059701;28;20372;-63
2023/02/03 01:46:53;;;;;;;3.45;2.28;;;;;;;;;;5066680;28;20029;-63
2023/02/03 01:49:25;;;;;;;3.50;1.90;;;;;;;;;;5040653;28;20451;-62
2023/02/03 01:52:11;;;;;;;7.30;2.83;;;;;;;;;;5053849;28;20147;-62
2023/02/03 01:54:41;;;;;;;2.50;1.80;;;;;;;;;;5053795;28;20047;-62
2023/02/03 01:57:13;;;;;;;4.37;2.50;;;;;;;;;;5049274;28;20064;-62
2023/02/03 01:59:40;;;;;;;4.63;1.97;;;;;;;;;;5067624;28;20058;-62
2023/02/03 02:02:16;;;;;;;5.70;2.63;;;;;;;;;;5064116;28;20108;-63
2023/02/03 02:04:50;;;;;;;3.37;1.73;;;;;;;;;;5048216;28;20048;-61
2023/02/03 02:07:17;;;;;;;2.57;2.00;;;;;;;;;;5067617;28;20021;-62
2023/02/03 02:09:47;;;;;;;3.20;2.50;;;;;;;;;;5053515;28;20772;-62
2023/02/03 02:12:33;;;;;;;3.53;2.80;;;;;;;;;;5053067;28;20395;-64
2023/02/03 02:15:00;;;;;;;5.37;2.80;;;;;;;;;;5053585;28;20040;-65
2023/02/03 02:17:29;;;;;;;12.93;2.57;;;;;;;;;;5061715;28;20025;-64
2023/02/03 02:19:59;;;;;;;10.33;4.50;;;;;;;;;;5057797;28;20035;-64
2023/02/03 02:22:38;;;;;;;8.10;3.63;;;;;;;;;;5060970;28;20028;-64
2023/02/03 02:25:12;;;;;;;3.97;1.97;;;;;;;;;;5048139;28;20029;-65
2023/02/03 02:28:10;;;;;;;2.03;1.60;;;;;;;;;;5043095;28;20072;-64
2023/02/03 02:30:40;;;;;;;22.33;3.47;;;;;;;;;;5053177;28;20101;-64
2023/02/03 02:33:15;;;;;;;5.83;2.40;;;;;;;;;;5054168;28;20043;-64
2023/02/03 02:35:49;;;;;;;19.43;4.23;;;;;;;;;;5057022;28;20021;-64
2023/02/03 02:38:21;;;;;;;14.23;3.27;;;;;;;;;;5052965;28;20511;-64
2023/02/03 02:41:05;;;;;;;10.60;3.23;;;;;;;;;;5050382;28;20028;-64
2023/02/03 02:43:38;;;;;;;14.73;2.70;;;;;;;;;;5047977;28;20060;-65
2023/02/03 02:46:13;;;;;;;3.43;2.13;;;;;;;;;;5047759;28;20175;-64
2023/02/03 02:48:55;;;;;;;3.10;2.20;;;;;;;;;;5047697;28;20027;-64
2023/02/03 02:51:22;;;;;;;3.77;2.43;;;;;;;;;;5050890;28;20108;-64
2023/02/03 02:53:54;;;;;;;4.17;2.80;;;;;;;;;;5052878;28;20033;-64
2023/02/03 02:56:23;;;;;;;6.60;2.77;;;;;;;;;;5060486;28;20514;-65
2023/02/03 02:58:50;;;;;;;5.20;3.07;;;;;;;;;;5052780;28;20033;-64
2023/02/03 03:01:22;;;;;;;4.27;2.03;;;;;;;;;;5050331;28;20041;-64
2023/02/03 03:03:49;;;;;;;48.47;5.87;;;;;;;;;;5048219;28;20372;-64
2023/02/03 03:06:20;;;;;;;20.57;2.20;;;;;;;;;;5047523;28;20024;-65
2023/02/03 03:09:09;;;;;;;10.90;3.73;;;;;;;;;;5047462;28;20483;-64
2023/02/03 03:11:39;;;;;;;7.53;2.43;;;;;;;;;;5044906;28;20078;-64
2023/02/03 03:14:09;;;;;;;6.83;4.10;;;;;;;;;;5052580;28;20025;-64
2023/02/03 03:16:37;;;;;;;3.77;2.67;;;;;;;;;;5065259;28;20029;-64
2023/02/03 03:19:10;;;;;;;10.37;3.57;;;;;;;;;;5062769;28;20483;-63
2023/02/03 03:21:49;;;;;;;4.87;2.50;;;;;;;;;;5054945;28;20025;-63
2023/02/03 03:24:18;;;;;;;2.93;2.30;;;;;;;;;;5052568;28;20032;-63
2023/02/03 03:26:57;;;;;;;2.97;1.77;;;;;;;;;;5046755;28;20036;-63
2023/02/03 03:29:33;;;;;;;4.73;2.43;;;;;;;;;;5047033;28;20033;-63
2023/02/03 03:32:01;;;;;;;3.37;2.33;;;;;;;;;;5047312;28;20047;-63
2023/02/03 03:34:28;;;;;;;3.37;2.10;;;;;;;;;;5046945;28;20480;-63
2023/02/03 03:36:58;;;;;;;9.13;2.77;;;;;;;;;;5052577;28;20440;-64
2023/02/03 03:39:34;;;;;;;7.03;2.43;;;;;;;;;;5052060;28;20345;-63
2023/02/03 03:42:27;;;;;;;5.53;3.27;;;;;;;;;;5052066;28;20021;-63
2023/02/03 03:44:57;;;;;;;3.93;2.03;;;;;;;;;;5028638;28;20518;-63
2023/02/03 03:47:28;;;;;;;13.13;4.27;;;;;;;;;;5050200;28;20465;-63
2023/02/03 03:49:55;;;;;;;1.97;1.67;;;;;;;;;;5046783;28;20537;-63
2023/02/03 03:52:25;;;;;;;5.77;2.57;;;;;;;;;;5046807;28;20375;-63
2023/02/03 03:54:53;;;;;;;4.93;2.40;;;;;;;;;;5046709;28;20546;-64
2023/02/03 03:57:26;;;;;;;3.63;1.90;;;;;;;;;;5048468;28;20052;-63
2023/02/03 03:59:53;;;;;;;3.97;2.30;;;;;;;;;;5051862;28;20029;-63
2023/02/03 04:02:21;;;;;;;8.33;3.30;;;;;;;;;;5051948;28;20422;-63
2023/02/03 04:04:48;;;;;;;4.63;2.77;;;;;;;;;;5051928;28;20021;-63
2023/02/03 04:07:15;;;;;;;11.93;3.70;;;;;;;;;;5056020;28;20103;-63
2023/02/03 04:09:42;;;;;;;4.17;2.57;;;;;;;;;;5050779;28;20036;-63
2023/02/03 04:12:16;;;;;;;11.10;2.60;;;;;;;;;;5057323;28;20476;-63
2023/02/03 04:14:42;;;;;;;12.48;3.72;;;;;;;;;;5046644;28;20107;-63
2023/02/03 04:17:09;;;;;;;8.50;3.73;;;;;;;;;;5046564;28;20102;-62
2023/02/03 04:19:36;;;;;;;13.00;3.70;;;;;;;;;;5048004;28;20056;-63
2023/02/03 04:22:02;;;;;;;3.77;2.80;;;;;;;;;;5052967;28;20041;-64
2023/02/03 04:24:29;;;;;;;23.17;4.43;;;;;;;;;;5055461;28;20025;-62
2023/02/03 04:26:56;;;;;;;7.83;3.37;;;;;;;;;;5055621;28;20029;-62
2023/02/03 04:29:24;;;;;;;30.27;2.57;;;;;;;;;;5054861;28;20135;-64
2023/02/03 04:31:51;;;;;;;15.30;2.90;;;;;;;;;;5053868;28;20033;-63
2023/02/03 04:34:18;;;;;;;4.27;2.30;;;;;;;;;;5050134;28;20021;-63
2023/02/03 04:36:44;;;;;;;10.70;2.87;;;;;;;;;;5050160;28;20028;-62
2023/02/03 04:39:11;;;;;;;8.87;2.70;;;;;;;;;;5050141;28;20068;-62
2023/02/03 04:41:38;;;;;;;2.97;1.90;;;;;;;;;;5050981;28;20379;-62
2023/02/03 04:44:04;;;;;;;3.93;2.23;;;;;;;;;;5055129;28;20021;-62
2023/02/03 04:46:31;;;;;;;2.07;1.80;;;;;;;;;;5054483;28;20043;-63
2023/02/03 04:48:58;;;;;;;8.10;2.33;;;;;;;;;;5070043;28;20029;-62
2023/02/03 04:51:24;;;;;;;43.20;3.70;;;;;;;;;;5074941;28;20086;-63
2023/02/03 04:53:51;;;;;;;5.93;4.40;;;;;;;;;;5074072;28;20024;-62
2023/02/03 04:56:18;;;;;;;13.43;3.90;;;;;;;;;;5069534;28;20422;-62
2023/02/03 04:58:44;;;;;;;4.70;3.37;;;;;;;;;;5069743;28;20020;-62
2023/02/03 05:01:11;;;;;;;3.27;2.13;;;;;;;;;;5059182;28;20112;-63
2023/02/03 05:03:58;;;;;;;5.10;3.20;;;;;;;;;;5050417;28;20065;-62
2023/02/03 05:06:25;;;;;;;13.43;4.00;;;;;;;;;;5054797;28;20033;-62
2023/02/03 05:08:52;;;;;;;5.73;2.97;;;;;;;;;;5054815;28;20055;-62
2023/02/03 05:11:19;;;;;;;7.23;3.17;;;;;;;;;;5055192;28;20379;-62
2023/02/03 05:13:46;;;;;;;1.70;1.53;;;;;;;;;;5054625;28;20029;-63
2023/02/03 05:16:32;;;;;;;3.83;2.07;;;;;;;;;;5052898;28;20041;-62
2023/02/03 05:18:59;;;;;;;7.40;2.30;;;;;;;;;;5048526;28;20488;-62
2023/02/03 05:21:25;;;;;;;4.97;3.10;;;;;;;;;;5049334;28;20376;-62
2023/02/03 05:23:52;;;;;;;3.77;2.50;;;;;;;;;;5049411;28;20036;-62
2023/02/03 05:26:19;;;;;;;4.40;2.80;;;;;;;;;;5050565;28;20025;-62
2023/02/03 05:28:46;;;;;;;3.40;2.23;;;;;;;;;;5053976;28;20029;-62
2023/02/03 05:31:12;;;;;;;4.43;3.00;;;;;;;;;;5054278;28;20021;-62
2023/02/03 05:33:39;;;;;;;4.67;3.43;;;;;;;;;;5054137;28;20033;-62
2023/02/03 05:36:06;;;;;;;9.57;3.17;;;;;;;;;;5054246;28;20052;-62
2023/02/03 05:38:32;;;;;;;7.10;4.30;;;;;;;;;;5052626;28;20017;-62
2023/02/03 05:43:44;;;;;;;3.72;2.63;;;;;;;;;;5064835;28;20078;-63
2023/02/03 05:46:11;;;;;;;6.80;2.77;;;;;;;;;;5050300;28;20112;-62
2023/02/03 05:48:37;;;;;;;5.10;2.97;;;;;;;;;;5050149;28;20021;-62
2023/02/03 05:51:04;;;;;;;16.03;4.03;;;;;;;;;;5053935;28;20036;-62
2023/02/03 05:53:31;;;;;;;8.37;3.33;;;;;;;;;;5053685;28;20029;-62
2023/02/03 05:56:08;;;;;;;4.27;3.00;;;;;;;;;;5055692;28;20483;-63
2023/02/03 05:58:54;;;;;;;4.40;2.93;;;;;;;;;;5049252;28;20075;-62
2023/02/03 06:01:21;;;;;;;4.63;3.30;;;;;;;;;;5071015;28;20021;-62
2023/02/03 06:03:48;;;;;;;3.40;2.23;;;;;;;;;;5068412;28;20055;-62
2023/02/03 06:06:15;;;;;;;3.70;2.90;;;;;;;;;;5068035;28;20537;-63
2023/02/03 06:08:42;;;;;;;3.37;2.57;;;;;;;;;;5065832;28;20081;-62
2023/02/03 06:11:09;;;;;;;4.17;3.60;;;;;;;;;;5064671;28;20037;-62
2023/02/03 06:13:57;;;;;;;13.83;3.33;;;;;;;;;;5073527;28;20103;-62
2023/02/03 06:16:24;;;;;;;5.07;2.97;;;;;;;;;;5073260;28;20028;-62
2023/02/03 06:18:51;;;;;;;4.17;2.50;;;;;;;;;;5072944;28;20043;-63
2023/02/03 06:21:18;;;;;;;4.57;2.80;;;;;;;;;;5073392;28;20484;-62
2023/02/03 06:23:45;;;;;;;4.73;2.70;;;;;;;;;;5057821;28;20472;-62
2023/02/03 06:26:11;;;;;;;3.50;2.60;;;;;;;;;;5048079;28;20383;-62
2023/02/03 06:28:38;;;;;;;5.27;3.20;;;;;;;;;;5047778;28;20028;-62
2023/02/03 06:31:05;;;;;;;5.23;2.77;;;;;;;;;;5047978;28;20072;-63
2023/02/03 06:33:32;;;;;;;8.07;2.63;;;;;;;;;;5049941;28;20029;-62
2023/02/03 06:35:59;;;;;;;4.90;2.87;;;;;;;;;;5052675;28;20087;-63
2023/02/03 06:38:25;;;;;;;2.87;2.33;;;;;;;;;;5053220;28;20079;-62
2023/02/03 06:40:52;;;;;;;5.07;2.93;;;;;;;;;;5052950;28;20472;-62
2023/02/03 06:43:19;;;;;;;5.07;3.07;;;;;;;;;;5054423;28;20067;-62
2023/02/03 06:45:46;;;;;;;2.37;1.90;;;;;;;;;;5069574;28;20024;-63
2023/02/03 06:48:13;;;;;;;22.53;2.43;;;;;;;;;;5067630;28;20024;-62
2023/02/03 06:50:39;;;;;;;3.00;2.70;;;;;;;;;;5064273;28;20116;-62
2023/02/03 06:53:06;;;;;;;6.27;2.67;;;;;;;;;;5047485;28;20438;-63
2023/02/03 06:55:33;;;;;;;6.87;3.57;;;;;;;;;;5049166;28;20021;-62
2023/02/03 06:57:59;;;;;;;6.47;3.90;;;;;;;;;;5052693;28;20475;-62
2023/02/03 07:00:26;;;;;;;3.27;2.37;;;;;;;;;;5052839;28;20021;-62
2023/02/03 07:02:54;;;;;;;4.77;3.17;;;;;;;;;;5052653;28;20067;-62
2023/02/03 07:05:21;;;;;;;4.07;3.57;;;;;;;;;;5057394;28;20029;-63
2023/02/03 07:07:48;;;;;;;4.00;3.10;;;;;;;;;;5050087;28;20029;-62
2023/02/03 07:10:14;;;;;;;2.47;1.73;;;;;;;;;;5047119;28;20078;-62
2023/02/03 07:12:41;;;;;;;4.20;2.87;;;;;;;;;;5047184;28;20028;-62
2023/02/03 07:15:08;;;;;;;4.43;2.93;;;;;;;;;;5046994;28;20060;-62
2023/02/03 07:17:35;;;;;;;4.03;2.40;;;;;;;;;;5048098;28;20514;-62
2023/02/03 07:20:01;;;;;;;1.87;1.67;;;;;;;;;;5052106;28;20054;-62
2023/02/03 07:22:28;;;;;;;3.87;2.83;;;;;;;;;;5052287;28;20028;-62
2023/02/03 07:24:55;;;;;;;11.67;2.40;;;;;;;;;;5051983;28;20096;-62
2023/02/03 07:27:21;;;;;;;2.83;2.30;;;;;;;;;;5052178;28;20035;-62
2023/02/03 07:29:48;;;;;;;3.83;2.77;;;;;;;;;;5051037;28;20040;-62
2023/02/03 07:32:15;;;;;;;4.43;2.53;;;;;;;;;;5051383;28;20028;-62
2023/02/03 07:34:41;;;;;;;3.13;2.50;;;;;;;;;;5065953;28;20020;-63
2023/02/03 07:37:08;;;;;;;3.17;2.53;;;;;;;;;;5066431;28;20475;-62
2023/02/03 07:39:35;;;;;;;2.60;2.37;;;;;;;;;;5067398;28;20029;-62
2023/02/03 07:42:01;;;;;;;2.67;2.03;;;;;;;;;;5071953;28;20044;-62
2023/02/03 07:44:28;;;;;;;3.67;2.70;;;;;;;;;;5072222;28;20503;-62
2023/02/03 07:46:55;;;;;;;12.90;2.47;;;;;;;;;;5071999;28;20536;-62
2023/02/03 07:49:21;;;;;;;4.57;3.10;;;;;;;;;;5071982;28;20035;-62
2023/02/03 07:51:48;;;;;;;4.73;3.47;;;;;;;;;;5071355;28;20082;-62
2023/02/03 07:54:15;;;;;;;4.50;2.47;;;;;;;;;;5066586;28;20032;-62
2023/02/03 07:56:42;;;;;;;3.17;2.37;;;;;;;;;;5067267;28;20021;-63
2023/02/03 07:59:09;;;;;;;5.40;3.80;;;;;;;;;;5070195;28;20120;-63
2023/02/03 08:01:36;;;;;;;3.63;2.97;;;;;;;;;;5050632;28;20036;-63
2023/02/03 08:04:04;;;;;;;4.10;3.30;;;;;;;;;;5075245;28;20083;-62
2023/02/03 08:06:31;;;;;;;3.87;2.87;;;;;;;;;;5076041;28;20028;-62
2023/02/03 08:08:58;;;;;;;3.67;2.53;;;;;;;;;;5075714;28;20031;-62
2023/02/03 08:11:24;;;;;;;2.97;2.63;;;;;;;;;;5075898;28;20483;-62
2023/02/03 08:13:51;;;;;;;5.17;3.07;;;;;;;;;;5074885;28;20024;-62
2023/02/03 08:16:18;;;;;;;4.40;3.13;;;;;;;;;;5070361;28;20036;-62
2023/02/03 08:18:44;;;;;;;3.83;3.00;;;;;;;;;;5070473;28;20105;-62
2023/02/03 08:21:11;;;;;;;3.97;2.90;;;;;;;;;;5070517;28;20021;-62
2023/02/03 08:23:38;;;;;;;6.60;3.77;;;;;;;;;;5070352;28;20028;-62
2023/02/03 08:26:05;;;;;;;4.13;2.83;;;;;;;;;;5074912;28;20021;-63
2023/02/03 08:28:31;;;;;;;2.70;2.23;;;;;;;;;;5055620;28;20048;-62
2023/02/03 08:30:58;;;;;;;5.23;3.20;;;;;;;;;;5054975;28;20033;-62
2023/02/03 08:33:25;;;;;;;4.10;3.03;;;;;;;;;;5055372;28;20043;-62
2023/02/03 08:35:52;;;;;;;4.83;3.33;;;;;;;;;;5055458;28;20499;-62
2023/02/03 08:38:20;;;;;;;6.17;3.63;;;;;;;;;;5050198;28;20120;-62
2023/02/03 08:40:47;;;;;;;4.60;3.00;;;;;;;;;;5049925;28;20116;-62
2023/02/03 08:43:14;;;;;;;2.43;2.17;;;;;;;;;;5067190;28;20584;-62
2023/02/03 08:45:41;;;;;;;2.60;2.23;;;;;;;;;;5069777;28;20077;-62
2023/02/03 08:48:07;;;;;;;6.27;2.97;;;;;;;;;;5074178;28;20083;-62
2023/02/03 08:50:34;;;;;;;4.83;3.83;;;;;;;;;;5075158;28;20070;-62
2023/02/03 08:53:01;;;;;;;2.47;1.93;;;;;;;;;;5075320;28;20356;-62
2023/02/03 08:55:27;;;;;;;1.73;1.50;;;;;;;;;;5070352;28;20048;-62
2023/02/03 08:57:54;;;;;;;4.97;3.97;;;;;;;;;;5069703;28;20029;-62
2023/02/03 09:00:21;;;;;;;17.23;3.63;;;;;;;;;;5070255;28;20033;-62
2023/02/03 09:02:48;;;;;;;3.07;2.63;;;;;;;;;;5069166;28;20471;-62
2023/02/03 09:05:17;;;;;;;2.77;2.27;;;;;;;;;;5069692;28;20029;-62
2023/02/03 09:07:44;;;;;;;7.17;3.87;;;;;;;;;;5068811;28;20032;-62
2023/02/03 09:10:10;;;;;;;3.60;2.77;;;;;;;;;;5073079;28;20025;-62
2023/02/03 09:12:37;;;;;;;5.47;3.03;;;;;;;;;;5071630;28;20021;-62
2023/02/03 09:15:04;;;;;;;3.40;2.83;;;;;;;;;;5054641;28;20036;-62
2023/02/03 09:17:31;;;;;;;5.00;3.20;;;;;;;;;;5054586;28;20029;-61
2023/02/03 09:19:57;;;;;;;3.73;3.07;;;;;;;;;;5053984;28;20104;-62
2023/02/03 09:22:24;;;;;;;3.40;2.53;;;;;;;;;;5050238;28;20033;-62
2023/02/03 09:24:51;;;;;;;10.10;3.30;;;;;;;;;;5049038;28;20472;-63
2023/02/03 09:27:17;;;;;;;4.10;3.27;;;;;;;;;;5048896;28;20339;-64
2023/02/03 09:29:44;;;;;;;3.80;2.40;;;;;;;;;;5069148;28;20040;-62
2023/02/03 09:32:11;;;;;;;2.67;2.10;;;;;;;;;;5072394;28;20756;-62
2023/02/03 09:34:40;;;;;;;4.73;3.30;;;;;;;;;;5074250;28;20292;-62
2023/02/03 09:37:07;;;;;;;3.57;2.63;;;;;;;;;;5074002;28;20036;-62
2023/02/03 09:39:33;;;;;;;2.93;2.63;;;;;;;;;;5074356;28;20479;-62
2023/02/03 09:42:18;;;;;;;4.10;2.63;;;;;;;;;;5066543;28;20360;-62
2023/02/03 09:44:45;;;;;;;2.90;2.57;;;;;;;;;;5049585;28;20246;-62
2023/02/03 09:47:17;;;;;;;3.33;2.60;;;;;;;;;;5048675;28;20064;-62
2023/02/03 09:50:09;;;;;;;3.87;3.00;;;;;;;;;;5048725;28;20033;-62
2023/02/03 09:52:40;;;;;;;4.50;3.13;;;;;;;;;;5045889;28;20266;-62
2023/02/03 09:55:19;;;;;;;4.33;2.50;;;;;;;;;;5054687;28;20021;-62
2023/02/03 09:57:55;;;;;;;3.93;3.07;;;;;;;;;;5054036;28;20017;-63
2023/02/03 10:00:30;;;;;;;3.50;2.23;;;;;;;;;;5068104;28;20068;-62
2023/02/03 10:02:57;;;;;;;;;;;;;;;;;;5074398;28;20025;-62
2023/02/03 10:05:32;;;;;;;3.93;2.30;;;;;;;;;;5072701;28;19908;-62
2023/02/03 10:08:19;;;;;;;4.90;3.07;;;;;;;;;;5067989;28;20028;-62
2023/02/03 10:11:15;;;;;;;3.97;3.10;;;;;;;;;;5017487;28;20444;-61
2023/02/03 10:13:41;;;;;;;8.77;3.67;;;;;;;;;;5047127;28;20257;-62
2023/02/03 10:16:17;;;;;;;3.87;2.97;;;;;;;;;;5070569;28;20029;-62
2023/02/03 10:18:54;;;;;;;3.80;2.87;;;;;;;;;;5073281;28;20669;-63
2023/02/03 10:21:39;;;;;;;7.03;3.07;;;;;;;;;;5072587;28;20601;-62
2023/02/03 10:24:20;;;;;;;4.60;3.20;;;;;;;;;;5064786;28;20072;-62
2023/02/03 10:26:46;;;;;;;5.03;3.43;;;;;;;;;;5066824;28;20265;-62
2023/02/03 10:29:16;;;;;;;4.43;2.57;;;;;;;;;;5068661;28;20104;-61
2023/02/03 10:31:46;;;;;;;4.50;3.33;;;;;;;;;;5067697;28;20265;-62
2023/02/03 10:34:16;;;;;;;3.77;3.23;;;;;;;;;;5067164;28;20699;-62
2023/02/03 10:36:57;;;;;;;4.07;3.10;;;;;;;;;;5047791;28;20771;-62
2023/02/03 10:39:27;;;;;;;2.77;2.47;;;;;;;;;;5052126;28;20043;-62
2023/02/03 10:41:55;;;;;;;4.80;3.27;;;;;;;;;;5052425;28;20262;-63
2023/02/03 10:44:25;;;;;;;3.10;2.23;;;;;;;;;;5053018;28;20029;-62
2023/02/03 10:46:52;;;;;;;2.80;2.27;;;;;;;;;;5052875;28;20040;-62
2023/02/03 10:49:20;;;;;;;3.37;2.87;;;;;;;;;;5060590;28;20027;-62
2023/02/03 10:51:50;;;;;;;3.37;2.73;;;;;;;;;;5054884;28;20029;-62
2023/02/03 10:54:33;;;;;;;3.70;3.27;;;;;;;;;;5047530;28;20029;-62
2023/02/03 10:57:05;;;;;;;3.17;2.40;;;;;;;;;;5047571;28;20400;-62
2023/02/03 10:59:35;;;;;;;4.10;2.80;;;;;;;;;;5047262;28;20052;-62
2023/02/03 11:02:07;;;;;;;3.30;2.53;;;;;;;;;;5052426;28;20483;-62
2023/02/03 11:04:34;;;;;;;5.57;2.67;;;;;;;;;;5052622;28;20094;-63
2023/02/03 11:07:04;;;;;;;3.17;2.57;;;;;;;;;;5052331;28;20025;-63
2023/02/03 11:09:34;;;;;;;5.63;2.30;;;;;;;;;;5052328;28;20044;-62
2023/02/03 11:12:09;;;;;;;2.80;2.50;;;;;;;;;;5052205;28;20035;-62
2023/02/03 11:14:37;;;;;;;12.93;2.78;;;;;;;;;;5047064;28;20039;-62
2023/02/03 11:17:08;;;;;;;7.00;3.30;;;;;;;;;;5047058;28;20025;-63
2023/02/03 11:19:36;;;;;;;2.63;2.17;;;;;;;;;;5046858;28;20496;-63
2023/02/03 11:22:02;;;;;;;4.63;2.47;;;;;;;;;;5050727;28;20068;-62
2023/02/03 11:24:33;;;;;;;2.80;2.27;;;;;;;;;;5052473;28;20320;-62
2023/02/03 11:27:01;;;;;;;2.80;2.33;;;;;;;;;;5052402;28;20023;-62
2023/02/03 11:29:31;;;;;;;4.27;3.00;;;;;;;;;;5052354;28;20025;-62
2023/02/03 11:32:00;;;;;;;2.20;1.67;;;;;;;;;;5052098;28;20078;-62
2023/02/03 11:34:28;;;;;;;5.23;2.90;;;;;;;;;;5052633;28;20045;-62
2023/02/03 11:36:56;;;;;;;2.63;1.83;;;;;;;;;;5051878;28;20100;-62
2023/02/03 11:39:27;;;;;;;4.97;1.90;;;;;;;;;;5048443;28;20495;-62
2023/02/03 11:41:54;;;;;;;2.03;1.50;;;;;;;;;;5046836;28;20044;-62
2023/02/03 11:44:28;;;;;;;1.90;1.70;;;;;;;;;;5046597;28;20021;-62
2023/02/03 11:47:00;;;;;;;2.10;1.53;;;;;;;;;;5046940;28;20427;-62
2023/02/03 11:49:30;;;;;;;2.57;2.10;;;;;;;;;;5050446;28;20033;-62
2023/02/03 11:52:25;;;;;;;3.17;2.00;;;;;;;;;;5060333;28;20025;-62
2023/02/03 11:54:52;;;;;;;2.60;1.77;;;;;;;;;;5072164;28;20434;-61
2023/02/03 11:57:23;;;;;;;1.57;1.20;;;;;;;;;;5072008;28;20036;-62
2023/02/03 12:00:05;;;;;;;2.53;1.70;;;;;;;;;;5072024;28;20103;-62
2023/02/03 12:02:47;;;;;;;1.43;1.10;;;;;;;;;;5066365;28;20020;-62
2023/02/03 12:05:17;;;;;;;1.30;1.13;;;;;;;;;;5066725;28;20418;-62
2023/02/03 12:07:53;;;;;;;1.30;1.10;;;;;;;;;;5059508;28;20266;-63
2023/02/03 12:10:41;;;;;;;1.53;0.97;;;;;;;;;;5046824;28;20037;-62
2023/02/03 12:13:16;;;;;;;2.83;1.50;;;;;;;;;;5051924;28;20025;-62
2023/02/03 12:15:55;;;;;;;2.23;1.63;;;;;;;;;;5051862;28;20033;-62
2023/02/03 12:18:22;;;;;;;1.40;1.10;;;;;;;;;;5051860;28;20025;-62
2023/02/03 12:20:57;;;;;;;1.07;0.83;;;;;;;;;;5051347;28;20029;-62
2023/02/03 12:23:44;;;;;;;1.17;1.07;;;;;;;;;;5052384;28;20506;-62
2023/02/03 12:26:24;;;;;;;0.97;0.87;;;;;;;;;;5052699;28;20067;-62
2023/02/03 12:29:14;;;;;;;2.57;1.97;;;;;;;;;;5066048;28;20029;-62
2023/02/03 12:31:40;;;;;;;0.90;0.77;;;;;;;;;;5053445;28;20107;-63
2023/02/03 12:34:25;;;;;;;0.83;0.53;;;;;;;;;;5070317;28;20024;-62
2023/02/03 12:36:55;;;;;;;2.75;1.40;;;;;;;;;;5071976;28;20164;-62
2023/02/03 12:39:40;;;;;;;1.67;1.17;;;;;;;;;;5067561;28;20025;-62
2023/02/03 12:42:15;;;;;;;2.08;1.52;;;;;;;;;;5051656;28;20079;-62
2023/02/03 12:44:46;;;;;;;3.50;1.33;;;;;;;;;;5053950;28;20492;-62
2023/02/03 12:47:13;;;;;;;2.93;1.10;;;;;;;;;;5049993;28;20045;-62
2023/02/03 12:49:45;;;;;;;1.60;0.60;;;;;;;;;;5050048;28;20450;-62
2023/02/03 12:52:25;;;;;;;0.80;0.60;;;;;;;;;;5049931;28;20440;-62
2023/02/03 12:54:52;;;;;;;0.50;0.50;;;;;;;;;;5050314;28;20422;-62
2023/02/03 12:57:42;;;;;;;6.50;1.17;;;;;;;;;;5054844;28;20028;-62
2023/02/03 13:00:26;;;;;;;2.87;1.57;;;;;;;;;;5046987;28;20048;-62
2023/02/03 13:03:06;;;;;;;1.85;1.35;;;;;;;;;;5056721;28;20616;-62
2023/02/03 13:05:45;;;;;;;1.53;1.20;;;;;;;;;;5054885;28;20021;-62
2023/02/03 13:08:11;;;;;;;4.50;1.93;;;;;;;;;;5051468;28;20029;-63
2023/02/03 13:10:47;;;;;;;2.03;1.30;;;;;;;;;;5049418;28;20289;-62
2023/02/03 13:13:16;;;;;;;1.03;0.93;;;;;;;;;;5049087;28;20028;-62
2023/02/03 13:15:46;;;;;;;2.50;1.37;;;;;;;;;;5049502;28;20036;-62
2023/02/03 13:18:19;;;;;;;2.10;1.40;;;;;;;;;;5068733;28;20364;-62
2023/02/03 13:20:46;;;;;;;1.27;1.17;;;;;;;;;;5074407;28;20028;-62
2023/02/03 13:23:13;;;;;;;1.47;1.37;;;;;;;;;;5074637;28;20103;-62
2023/02/03 13:25:52;;;;;;;2.30;1.73;;;;;;;;;;5074093;28;20791;-62
2023/02/03 13:28:38;;;;;;;1.60;1.13;;;;;;;;;;5074499;28;20748;-62
2023/02/03 13:31:14;;;;;;;2.67;1.20;;;;;;;;;;5060887;28;20048;-62
2023/02/03 13:33:53;;;;;;;2.13;1.43;;;;;;;;;;5068956;28;20103;-62
2023/02/03 13:36:26;;;;;;;5.63;2.07;;;;;;;;;;5068919;28;20752;-62
2023/02/03 13:39:04;;;;;;;1.97;1.67;;;;;;;;;;5068888;28;20261;-63
2023/02/03 13:41:43;;;;;;;7.03;2.53;;;;;;;;;;5073813;28;20295;-62
2023/02/03 13:44:15;;;;;;;4.30;2.63;;;;;;;;;;5073474;28;20788;-62
2023/02/03 13:46:42;;;;;;;17.80;3.13;;;;;;;;;;5074252;28;20074;-62
2023/02/03 13:49:09;;;;;;;3.87;1.83;;;;;;;;;;5073820;28;20450;-62
2023/02/03 13:51:42;;;;;;;2.10;1.40;;;;;;;;;;5070812;28;20273;-63
2023/02/03 13:54:14;;;;;;;2.30;1.40;;;;;;;;;;5068226;28;20420;-62
2023/02/03 13:56:43;;;;;;;1.80;1.40;;;;;;;;;;5055079;28;20449;-62
2023/02/03 13:59:13;;;;;;;1.43;1.00;;;;;;;;;;5048475;28;20025;-63
2023/02/03 14:01:43;;;;;;;6.53;1.20;;;;;;;;;;5049298;28;20021;-62
2023/02/03 14:04:22;;;;;;;13.63;2.20;;;;;;;;;;5053685;28;20759;-62
2023/02/03 14:06:51;;;;;;;3.10;1.43;;;;;;;;;;5065534;28;20702;-62
2023/02/03 14:09:21;;;;;;;1.47;0.87;;;;;;;;;;5073029;28;20051;-62
2023/02/03 14:11:52;;;;;;;0.50;0.50;;;;;;;;;;5073586;28;20025;-63
2023/02/03 14:14:22;;;;;;;1.93;0.97;;;;;;;;;;5071323;28;20032;-63
2023/02/03 14:16:49;;;;;;;1.20;0.80;;;;;;;;;;5067731;28;20078;-63
2023/02/03 14:19:22;;;;;;;17.47;0.97;;;;;;;;;;5066006;28;20031;-63
2023/02/03 14:21:55;;;;;;;1.00;0.80;;;;;;;;;;5057538;28;20033;-62
2023/02/03 14:24:22;;;;;;;2.63;1.13;;;;;;;;;;5051308;28;20033;-62
2023/02/03 14:26:51;;;;;;;0.30;0.30;;;;;;;;;;5056734;28;20075;-63
2023/02/03 14:29:26;;;;;;;0.40;0.40;;;;;;;;;;5052840;28;20024;-62
2023/02/03 14:32:01;;;;;;;1.73;0.93;;;;;;;;;;5053182;28;20029;-62
2023/02/03 14:34:30;;;;;;;0.90;0.68;;;;;;;;;;5053195;28;20095;-62
2023/02/03 14:36:58;;;;;;;2.10;0.60;;;;;;;;;;5050405;28;20025;-63
2023/02/03 14:39:34;;;;;;;1.93;0.83;;;;;;;;;;5047376;28;20025;-64
2023/02/03 14:42:20;;;;;;;0.73;0.67;;;;;;;;;;5050697;28;20029;-62
2023/02/03 14:45:02;;;;;;;1.00;0.43;;;;;;;;;;5047380;28;20092;-63
2023/02/03 14:47:35;;;;;;;1.73;0.50;;;;;;;;;;5051008;28;20025;-62
2023/02/03 14:50:08;;;;;;;3.30;0.50;;;;;;;;;;5052917;28;20178;-62
2023/02/03 14:52:43;;;;;;;0.83;0.57;;;;;;;;;;5052884;28;20025;-62
2023/02/03 14:55:13;;;;;;;0.50;0.40;;;;;;;;;;5052696;28;20067;-62
2023/02/03 14:57:47;;;;;;;2.13;0.60;;;;;;;;;;5052391;28;20025;-63
2023/02/03 15:00:21;;;;;;;0.38;0.38;;;;;;;;;;5047290;28;20075;-63
2023/02/03 15:03:09;;;;;;;2.67;0.60;;;;;;;;;;5047355;28;20396;-63
2023/02/03 15:05:40;;;;;;;0.57;0.47;;;;;;;;;;5046443;28;20025;-62